sensor_id;sensor_type;location;lat;lon;timestamp;pressure;altitude;pressure_sealevel;temperature;humidity
63115;BME280;49208;50.874;6.466;2023-03-14T07:01:39;97903.84;;;9.19;100.00
63115;BME280;49208;50.874;6.466;2023-03-14T07:04:05;97900.97;;;9.22;100.00
63115;BME280;49208;50.874;6.466;2023-03-14T07:06:31;97905.72;;;9.29;100.00
63115;BME280;49208;50.874;6.466;2023-03-14T07:08:56;97915.56;;;9.53;100.00
63115;BME280;49208;50.874;6.466;2023-03-14T07:11:22;97901.34;;;9.78;100.00
63115;BME280;49208;50.874;6.466;2023-03-14T07:13:47;97908.47;;;10.02;100.00
63115;BME280;49208;50.874;6.466;2023-03-14T07:16:13;97906.47;;;10.17;100.00
63115;BME280;49208;50.874;6.466;2023-03-14T07:18:38;97908.88;;;10.32;100.00
63115;BME280;49208;50.874;6.466;2023-03-14T07:21:08;97899.59;;;10.38;100.00
63115;BME280;49208;50.874;6.466;2023-03-14T07:23:37;97917.84;;;10.43;100.00
63115;BME280;49208;50.874;6.466;2023-03-14T07:26:03;97933.19;;;10.39;100.00
63115;BME280;49208;50.874;6.466;2023-03-14T07:28:29;97925.66;;;10.33;100.00
63115;BME280;49208;50.874;6.466;2023-03-14T07:30:54;97930.13;;;10.32;100.00
63115;BME280;49208;50.874;6.466;2023-03-14T07:33:20;97933.63;;;10.33;100.00
63115;BME280;49208;50.874;6.466;2023-03-14T07:35:49;97939.28;;;10.28;100.00
63115;BME280;49208;50.874;6.466;2023-03-14T07:38:15;97932.06;;;10.30;100.00
63115;BME280;49208;50.874;6.466;2023-03-14T07:40:40;97944.50;;;10.30;100.00
63115;BME280;49208;50.874;6.466;2023-03-14T07:43:06;97931.41;;;10.27;100.00
63115;BME280;49208;50.874;6.466;2023-03-14T07:45:31;97950.25;;;10.24;100.00
63115;BME280;49208;50.874;6.466;2023-03-14T07:47:57;97942.94;;;10.15;100.00
63115;BME280;49208;50.874;6.466;2023-03-14T07:50:24;97943.28;;;10.10;100.00
63115;BME280;49208;50.874;6.466;2023-03-14T07:52:49;97938.59;;;10.14;100.00
63115;BME280;49208;50.874;6.466;2023-03-14T07:55:15;97949.25;;;10.14;100.00
63115;BME280;49208;50.874;6.466;2023-03-14T07:57:40;97946.59;;;10.14;100.00
63115;BME280;49208;50.874;6.466;2023-03-14T08:00:07;97944.28;;;10.09;100.00
63115;BME280;49208;50.874;6.466;2023-03-14T08:02:32;97956.59;;;10.10;100.00
63115;BME280;49208;50.874;6.466;2023-03-14T08:04:58;97946.94;;;10.09;100.00
63115;BME280;49208;50.874;6.466;2023-03-14T08:07:23;97950.44;;;10.09;100.00
63115;BME280;49208;50.874;6.466;2023-03-14T08:09:49;97953.94;;;10.10;100.00
63115;BME280;49208;50.874;6.466;2023-03-14T08:12:14;97961.69;;;10.13;100.00
63115;BME280;49208;50.874;6.466;2023-03-14T08:14:41;97955.78;;;10.21;100.00
63115;BME280;49208;50.874;6.466;2023-03-14T08:17:06;97958.44;;;10.34;100.00
63115;BME280;49208;50.874;6.466;2023-03-14T08:19:33;97962.22;;;10.42;100.00
63115;BME280;49208;50.874;6.466;2023-03-14T08:21:58;97955.06;;;10.43;100.00
63115;BME280;49208;50.874;6.466;2023-03-14T08:24:24;97977.66;;;10.37;100.00
63115;BME280;49208;50.874;6.466;2023-03-14T08:26:49;97975.44;;;10.31;100.00
63115;BME280;49208;50.874;6.466;2023-03-14T08:29:14;97984.81;;;10.24;100.00
63115;BME280;49208;50.874;6.466;2023-03-14T08:31:40;97993.59;;;10.13;100.00
63115;BME280;49208;50.874;6.466;2023-03-14T08:34:05;97990.00;;;10.01;100.00
63115;BME280;49208;50.874;6.466;2023-03-14T08:36:31;98004.72;;;9.94;100.00
63115;BME280;49208;50.874;6.466;2023-03-14T08:38:57;98011.84;;;9.81;100.00
63115;BME280;49208;50.874;6.466;2023-03-14T08:41:22;98008.78;;;9.74;100.00
63115;BME280;49208;50.874;6.466;2023-03-14T08:43:48;98003.69;;;9.71;100.00
63115;BME280;49208;50.874;6.466;2023-03-14T08:46:13;98015.38;;;9.68;100.00
63115;BME280;49208;50.874;6.466;2023-03-14T08:48:38;98018.88;;;9.69;100.00
63115;BME280;49208;50.874;6.466;2023-03-14T08:51:13;98023.69;;;9.64;100.00
63115;BME280;49208;50.874;6.466;2023-03-14T08:53:40;98026.09;;;9.67;100.00
63115;BME280;49208;50.874;6.466;2023-03-14T08:56:06;98024.19;;;9.69;100.00
63115;BME280;49208;50.874;6.466;2023-03-14T08:58:35;98025.66;;;9.73;100.00
63115;BME280;49208;50.874;6.466;2023-03-14T09:01:02;98021.84;;;9.77;100.00
63115;BME280;49208;50.874;6.466;2023-03-14T09:03:28;98034.28;;;9.77;100.00
63115;BME280;49208;50.874;6.466;2023-03-14T09:05:53;98048.41;;;9.77;100.00
63115;BME280;49208;50.874;6.466;2023-03-14T09:08:19;98049.28;;;9.65;100.00
63115;BME280;49208;50.874;6.466;2023-03-14T09:10:44;98056.22;;;9.55;100.00
63115;BME280;49208;50.874;6.466;2023-03-14T09:13:10;98104.72;;;9.44;100.00
63115;BME280;49208;50.874;6.466;2023-03-14T09:15:35;98139.28;;;9.04;100.00
63115;BME280;49208;50.874;6.466;2023-03-14T09:18:01;98147.00;;;8.67;100.00
63115;BME280;49208;50.874;6.466;2023-03-14T09:20:27;98156.66;;;8.41;100.00
63115;BME280;49208;50.874;6.466;2023-03-14T09:22:52;98167.03;;;8.15;100.00
63115;BME280;49208;50.874;6.466;2023-03-14T09:25:18;98188.88;;;7.90;100.00
63115;BME280;49208;50.874;6.466;2023-03-14T09:27:43;98196.56;;;7.80;100.00
63115;BME280;49208;50.874;6.466;2023-03-14T09:30:09;98208.66;;;7.70;100.00
63115;BME280;49208;50.874;6.466;2023-03-14T09:32:34;98227.44;;;7.65;100.00
63115;BME280;49208;50.874;6.466;2023-03-14T09:35:00;98235.31;;;7.67;100.00
63115;BME280;49208;50.874;6.466;2023-03-14T09:37:25;98250.78;;;7.59;100.00
63115;BME280;49208;50.874;6.466;2023-03-14T09:39:51;98269.09;;;7.47;100.00
63115;BME280;49208;50.874;6.466;2023-03-14T09:42:19;98278.31;;;7.40;100.00
63115;BME280;49208;50.874;6.466;2023-03-14T09:45:03;98293.63;;;7.35;100.00
63115;BME280;49208;50.874;6.466;2023-03-14T09:47:32;98303.38;;;7.35;100.00
63115;BME280;49208;50.874;6.466;2023-03-14T09:50:00;98317.53;;;7.34;100.00
63115;BME280;49208;50.874;6.466;2023-03-14T09:52:36;98325.53;;;7.32;100.00
63115;BME280;49208;50.874;6.466;2023-03-14T09:55:06;98324.88;;;7.28;100.00
63115;BME280;49208;50.874;6.466;2023-03-14T09:57:36;98343.56;;;7.25;100.00
63115;BME280;49208;50.874;6.466;2023-03-14T10:00:10;98341.94;;;7.23;100.00
63115;BME280;49208;50.874;6.466;2023-03-14T10:02:40;98365.06;;;7.19;100.00
63115;BME280;49208;50.874;6.466;2023-03-14T10:05:20;98374.13;;;7.15;100.00
63115;BME280;49208;50.874;6.466;2023-03-14T10:07:46;98363.78;;;7.11;100.00
63115;BME280;49208;50.874;6.466;2023-03-14T10:10:16;98384.78;;;7.14;100.00
63115;BME280;49208;50.874;6.466;2023-03-14T10:12:46;98377.44;;;7.19;100.00
63115;BME280;49208;50.874;6.466;2023-03-14T10:15:13;98373.63;;;7.24;100.00
63115;BME280;49208;50.874;6.466;2023-03-14T10:17:50;98391.69;;;7.32;100.00
63115;BME280;49208;50.874;6.466;2023-03-14T10:20:36;98397.34;;;7.42;100.00
63115;BME280;49208;50.874;6.466;2023-03-14T10:23:19;98398.69;;;7.49;100.00
63115;BME280;49208;50.874;6.466;2023-03-14T10:29:01;98443.13;;;7.44;100.00
63115;BME280;49208;50.874;6.466;2023-03-14T10:31:26;98447.44;;;7.45;100.00
63115;BME280;49208;50.874;6.466;2023-03-14T10:34:04;98463.00;;;7.51;100.00
63115;BME280;49208;50.874;6.466;2023-03-14T10:36:30;98456.78;;;7.52;100.00
63115;BME280;49208;50.874;6.466;2023-03-14T10:42:12;98477.44;;;7.61;100.00
63115;BME280;49208;50.874;6.466;2023-03-14T10:44:39;98484.28;;;7.65;100.00
63115;BME280;49208;50.874;6.466;2023-03-14T10:47:06;98477.66;;;7.74;100.00
63115;BME280;49208;50.874;6.466;2023-03-14T10:49:36;98493.00;;;7.83;100.00
63115;BME280;49208;50.874;6.466;2023-03-14T10:54:33;98512.56;;;8.13;100.00
63115;BME280;49208;50.874;6.466;2023-03-14T10:57:00;98523.78;;;8.18;100.00
63115;BME280;49208;50.874;6.466;2023-03-14T10:59:30;98529.91;;;8.18;100.00
63115;BME280;49208;50.874;6.466;2023-03-14T11:07:48;98548.28;;;8.21;99.51
63115;BME280;49208;50.874;6.466;2023-03-14T11:10:33;98561.97;;;8.14;100.00
63115;BME280;49208;50.874;6.466;2023-03-14T11:15:38;98573.50;;;7.97;99.44
63115;BME280;49208;50.874;6.466;2023-03-14T11:24:00;98584.53;;;8.05;99.62
63115;BME280;49208;50.874;6.466;2023-03-14T11:26:39;98587.94;;;8.07;98.28
63115;BME280;49208;50.874;6.466;2023-03-14T11:31:47;98604.47;;;8.28;98.15
63115;BME280;49208;50.874;6.466;2023-03-14T11:36:51;98617.81;;;8.26;93.70
63115;BME280;49208;50.874;6.466;2023-03-14T11:39:19;98660.44;;;8.06;96.22
63115;BME280;49208;50.874;6.466;2023-03-14T11:41:55;98668.19;;;7.60;95.20
63115;BME280;49208;50.874;6.466;2023-03-14T11:44:40;98677.53;;;7.32;96.88
63115;BME280;49208;50.874;6.466;2023-03-14T11:49:47;98699.69;;;6.58;100.00
63115;BME280;49208;50.874;6.466;2023-03-14T11:52:44;98705.09;;;6.36;100.00
63115;BME280;49208;50.874;6.466;2023-03-14T11:55:32;98719.94;;;6.20;100.00
63115;BME280;49208;50.874;6.466;2023-03-14T11:58:02;98725.38;;;6.17;100.00
63115;BME280;49208;50.874;6.466;2023-03-14T12:00:29;98744.09;;;6.12;100.00
63115;BME280;49208;50.874;6.466;2023-03-14T12:03:21;98744.25;;;6.07;100.00
63115;BME280;49208;50.874;6.466;2023-03-14T12:06:12;98752.91;;;6.11;100.00
63115;BME280;49208;50.874;6.466;2023-03-14T12:08:44;98766.66;;;6.19;100.00
63115;BME280;49208;50.874;6.466;2023-03-14T12:11:33;98767.16;;;6.27;100.00
63115;BME280;49208;50.874;6.466;2023-03-14T12:13:57;98784.44;;;6.35;100.00
63115;BME280;49208;50.874;6.466;2023-03-14T12:18:49;98796.41;;;6.62;100.00
63115;BME280;49208;50.874;6.466;2023-03-14T12:21:15;98806.03;;;6.63;100.00
63115;BME280;49208;50.874;6.466;2023-03-14T12:23:42;98801.53;;;6.65;100.00
63115;BME280;49208;50.874;6.466;2023-03-14T12:28:38;98821.91;;;6.63;100.00
63115;BME280;49208;50.874;6.466;2023-03-14T12:42:14;98864.94;;;6.67;97.88
63115;BME280;49208;50.874;6.466;2023-03-14T12:44:49;98861.72;;;6.60;98.63
63115;BME280;49208;50.874;6.466;2023-03-14T12:49:46;98875.97;;;6.96;97.80
63115;BME280;49208;50.874;6.466;2023-03-14T12:52:35;98885.63;;;7.16;92.30
63115;BME280;49208;50.874;6.466;2023-03-14T12:55:10;98885.13;;;7.26;93.83
63115;BME280;49208;50.874;6.466;2023-03-14T13:00:21;98911.59;;;7.26;92.15
63115;BME280;49208;50.874;6.466;2023-03-14T13:02:49;98906.66;;;7.19;90.86
63115;BME280;49208;50.874;6.466;2023-03-14T13:05:22;98918.59;;;7.08;90.80
63115;BME280;49208;50.874;6.466;2023-03-14T13:10:26;98928.44;;;6.86;95.13
63115;BME280;49208;50.874;6.466;2023-03-14T13:17:59;98954.75;;;6.89;96.76
63115;BME280;49208;50.874;6.466;2023-03-14T13:20:32;98958.63;;;7.01;95.28
63115;BME280;49208;50.874;6.466;2023-03-14T13:22:59;98963.16;;;7.18;94.96
63115;BME280;49208;50.874;6.466;2023-03-14T13:25:29;98963.31;;;7.34;94.67
63115;BME280;49208;50.874;6.466;2023-03-14T13:27:55;98963.75;;;7.43;93.91
63115;BME280;49208;50.874;6.466;2023-03-14T13:30:29;98974.19;;;7.46;92.27
63115;BME280;49208;50.874;6.466;2023-03-14T13:33:03;99005.38;;;7.40;92.35
63115;BME280;49208;50.874;6.466;2023-03-14T13:35:40;99007.88;;;7.03;91.05
63115;BME280;49208;50.874;6.466;2023-03-14T13:38:15;99033.22;;;6.47;92.02
63115;BME280;49208;50.874;6.466;2023-03-14T13:40:43;99040.81;;;6.13;94.68
63115;BME280;49208;50.874;6.466;2023-03-14T13:45:48;99046.69;;;5.74;99.17
63115;BME280;49208;50.874;6.466;2023-03-14T13:48:14;99043.44;;;5.67;98.92
63115;BME280;49208;50.874;6.466;2023-03-14T13:50:45;99052.47;;;5.60;99.14
63115;BME280;49208;50.874;6.466;2023-03-14T13:53:11;99057.88;;;5.57;99.67
63115;BME280;49208;50.874;6.466;2023-03-14T13:55:38;99069.34;;;5.56;99.85
63115;BME280;49208;50.874;6.466;2023-03-14T13:58:03;99065.81;;;5.57;100.00
63115;BME280;49208;50.874;6.466;2023-03-14T14:00:29;99066.66;;;5.57;100.00
63115;BME280;49208;50.874;6.466;2023-03-14T14:02:56;99068.63;;;5.52;100.00
63115;BME280;49208;50.874;6.466;2023-03-14T14:05:23;99081.81;;;5.52;100.00
63115;BME280;49208;50.874;6.466;2023-03-14T14:07:50;99086.00;;;5.58;100.00
63115;BME280;49208;50.874;6.466;2023-03-14T14:10:17;99097.44;;;5.58;100.00
63115;BME280;49208;50.874;6.466;2023-03-14T14:12:49;99106.03;;;5.63;100.00
63115;BME280;49208;50.874;6.466;2023-03-14T14:15:23;99117.22;;;5.70;100.00
63115;BME280;49208;50.874;6.466;2023-03-14T14:18:02;99126.88;;;5.71;100.00
63115;BME280;49208;50.874;6.466;2023-03-14T14:20:31;99135.69;;;5.70;100.00
63115;BME280;49208;50.874;6.466;2023-03-14T14:23:02;99145.03;;;5.79;100.00
63115;BME280;49208;50.874;6.466;2023-03-14T14:25:29;99144.94;;;5.82;100.00
63115;BME280;49208;50.874;6.466;2023-03-14T14:27:55;99159.84;;;5.83;100.00
63115;BME280;49208;50.874;6.466;2023-03-14T14:32:48;99187.25;;;5.80;100.00
63115;BME280;49208;50.874;6.466;2023-03-14T14:35:25;99188.28;;;5.76;100.00
63115;BME280;49208;50.874;6.466;2023-03-14T14:37:52;99194.50;;;5.75;100.00
63115;BME280;49208;50.874;6.466;2023-03-14T14:40:21;99194.41;;;5.77;100.00
63115;BME280;49208;50.874;6.466;2023-03-14T14:42:48;99206.72;;;5.78;100.00
63115;BME280;49208;50.874;6.466;2023-03-14T14:45:24;99205.69;;;5.82;100.00
63115;BME280;49208;50.874;6.466;2023-03-14T14:48:02;99208.31;;;5.82;100.00
63115;BME280;49208;50.874;6.466;2023-03-14T14:52:59;99220.38;;;5.89;100.00
63115;BME280;49208;50.874;6.466;2023-03-14T14:55:32;99219.44;;;5.92;100.00
63115;BME280;49208;50.874;6.466;2023-03-14T14:58:12;99223.72;;;5.96;100.00
63115;BME280;49208;50.874;6.466;2023-03-14T15:00:40;99224.56;;;5.96;100.00
63115;BME280;49208;50.874;6.466;2023-03-14T15:03:12;99236.78;;;5.99;100.00
63115;BME280;49208;50.874;6.466;2023-03-14T15:05:38;99240.19;;;6.02;100.00
63115;BME280;49208;50.874;6.466;2023-03-14T15:08:09;99253.34;;;6.04;100.00
63115;BME280;49208;50.874;6.466;2023-03-14T15:10:34;99261.16;;;6.07;100.00
63115;BME280;49208;50.874;6.466;2023-03-14T15:13:00;99267.06;;;6.14;100.00
63115;BME280;49208;50.874;6.466;2023-03-14T15:15:25;99265.13;;;6.19;100.00
63115;BME280;49208;50.874;6.466;2023-03-14T15:17:51;99277.25;;;6.24;99.83
63115;BME280;49208;50.874;6.466;2023-03-14T15:20:17;99280.75;;;6.25;98.88
63115;BME280;49208;50.874;6.466;2023-03-14T15:22:45;99280.06;;;6.20;97.14
63115;BME280;49208;50.874;6.466;2023-03-14T15:25:11;99292.63;;;6.13;96.01
63115;BME280;49208;50.874;6.466;2023-03-14T15:27:37;99288.28;;;6.12;95.76
63115;BME280;49208;50.874;6.466;2023-03-14T15:30:12;99296.44;;;6.06;96.35
63115;BME280;49208;50.874;6.466;2023-03-14T15:32:38;99296.47;;;6.04;95.79
63115;BME280;49208;50.874;6.466;2023-03-14T15:35:04;99307.00;;;6.06;96.02
63115;BME280;49208;50.874;6.466;2023-03-14T15:37:29;99308.75;;;6.05;96.43
63115;BME280;49208;50.874;6.466;2023-03-14T15:39:56;99314.09;;;6.04;96.29
63115;BME280;49208;50.874;6.466;2023-03-14T15:42:23;99314.09;;;6.04;95.76
63115;BME280;49208;50.874;6.466;2023-03-14T15:44:48;99314.97;;;6.04;95.18
63115;BME280;49208;50.874;6.466;2023-03-14T15:47:14;99325.41;;;6.07;96.00
63115;BME280;49208;50.874;6.466;2023-03-14T15:49:39;99329.84;;;6.07;96.22
63115;BME280;49208;50.874;6.466;2023-03-14T15:52:05;99335.97;;;6.07;95.15
63115;BME280;49208;50.874;6.466;2023-03-14T15:54:33;99340.53;;;6.04;94.03
63115;BME280;49208;50.874;6.466;2023-03-14T15:56:58;99340.63;;;6.01;94.83
63115;BME280;49208;50.874;6.466;2023-03-14T15:59:24;99349.59;;;5.95;94.43
63115;BME280;49208;50.874;6.466;2023-03-14T16:01:49;99351.41;;;5.93;95.71
63115;BME280;49208;50.874;6.466;2023-03-14T16:04:15;99357.63;;;5.92;96.68
63115;BME280;49208;50.874;6.466;2023-03-14T16:06:41;99356.84;;;5.88;97.87
63115;BME280;49208;50.874;6.466;2023-03-14T16:09:06;99371.03;;;5.86;98.30
63115;BME280;49208;50.874;6.466;2023-03-14T16:11:32;99377.28;;;5.83;98.85
63115;BME280;49208;50.874;6.466;2023-03-14T16:13:58;99376.47;;;5.81;99.13
63115;BME280;49208;50.874;6.466;2023-03-14T16:16:23;99388.03;;;5.77;99.15
63115;BME280;49208;50.874;6.466;2023-03-14T16:18:49;99394.34;;;5.73;98.68
63115;BME280;49208;50.874;6.466;2023-03-14T16:21:16;99396.38;;;5.65;98.30
63115;BME280;49208;50.874;6.466;2023-03-14T16:23:42;99401.72;;;5.62;98.35
63115;BME280;49208;50.874;6.466;2023-03-14T16:26:10;99400.91;;;5.60;97.65
63115;BME280;49208;50.874;6.466;2023-03-14T16:28:36;99409.91;;;5.54;92.66
63115;BME280;49208;50.874;6.466;2023-03-14T16:31:07;99409.03;;;5.54;83.61
63115;BME280;49208;50.874;6.466;2023-03-14T16:33:33;99408.16;;;5.53;80.85
63115;BME280;49208;50.874;6.466;2023-03-14T16:36:01;99421.41;;;5.52;78.33
63115;BME280;49208;50.874;6.466;2023-03-14T16:38:30;99429.47;;;5.47;72.93
63115;BME280;49208;50.874;6.466;2023-03-14T16:41:13;99439.25;;;5.43;73.11
63115;BME280;49208;50.874;6.466;2023-03-14T16:43:39;99448.13;;;5.41;71.06
63115;BME280;49208;50.874;6.466;2023-03-14T16:46:06;99442.97;;;5.38;72.47
63115;BME280;49208;50.874;6.466;2023-03-14T16:48:33;99457.91;;;5.37;73.44
63115;BME280;49208;50.874;6.466;2023-03-14T16:50:58;99463.38;;;5.31;75.05
63115;BME280;49208;50.874;6.466;2023-03-14T16:53:24;99478.38;;;5.29;74.62
63115;BME280;49208;50.874;6.466;2023-03-14T16:55:53;99477.63;;;5.25;74.44
63115;BME280;49208;50.874;6.466;2023-03-14T16:58:19;99487.38;;;5.23;75.53
63115;BME280;49208;50.874;6.466;2023-03-14T17:00:46;99493.53;;;5.22;75.41
63115;BME280;49208;50.874;6.466;2023-03-14T17:03:11;99504.19;;;5.19;74.45
63115;BME280;49208;50.874;6.466;2023-03-14T17:05:37;99505.19;;;5.15;73.58
63115;BME280;49208;50.874;6.466;2023-03-14T17:08:03;99499.94;;;5.14;75.04
63115;BME280;49208;50.874;6.466;2023-03-14T17:10:28;99508.81;;;5.11;75.32
63115;BME280;49208;50.874;6.466;2023-03-14T17:12:54;99522.09;;;5.08;76.04
63115;BME280;49208;50.874;6.466;2023-03-14T17:15:19;99530.09;;;5.05;73.24
63115;BME280;49208;50.874;6.466;2023-03-14T17:17:45;99542.50;;;5.01;73.47
63115;BME280;49208;50.874;6.466;2023-03-14T17:20:10;99539.97;;;4.98;72.20
63115;BME280;49208;50.874;6.466;2023-03-14T17:22:36;99551.50;;;4.94;75.50
63115;BME280;49208;50.874;6.466;2023-03-14T17:25:02;99556.88;;;4.90;74.37
63115;BME280;49208;50.874;6.466;2023-03-14T17:27:27;99562.25;;;4.86;71.88
63115;BME280;49208;50.874;6.466;2023-03-14T17:29:53;99582.63;;;4.80;72.75
63115;BME280;49208;50.874;6.466;2023-03-14T17:32:18;99588.84;;;4.77;72.37
63115;BME280;49208;50.874;6.466;2023-03-14T17:34:44;99593.38;;;4.72;72.11
63115;BME280;49208;50.874;6.466;2023-03-14T17:37:10;99611.03;;;4.69;72.15
63115;BME280;49208;50.874;6.466;2023-03-14T17:39:36;99617.28;;;4.64;70.92
63115;BME280;49208;50.874;6.466;2023-03-14T17:42:02;99619.09;;;4.62;71.59
63115;BME280;49208;50.874;6.466;2023-03-14T17:44:28;99631.50;;;4.59;72.63
63115;BME280;49208;50.874;6.466;2023-03-14T17:46:53;99631.56;;;4.56;71.34
63115;BME280;49208;50.874;6.466;2023-03-14T17:49:20;99647.47;;;4.51;72.06
63115;BME280;49208;50.874;6.466;2023-03-14T17:51:45;99649.19;;;4.52;71.77
63115;BME280;49208;50.874;6.466;2023-03-14T17:54:10;99653.69;;;4.49;71.68
63115;BME280;49208;50.874;6.466;2023-03-14T17:56:36;99660.78;;;4.47;70.96
63115;BME280;49208;50.874;6.466;2023-03-14T17:59:01;99667.84;;;4.44;70.54
63115;BME280;49208;50.874;6.466;2023-03-14T18:01:27;99678.41;;;4.43;71.07
63115;BME280;49208;50.874;6.466;2023-03-14T18:03:52;99689.06;;;4.38;71.73
63115;BME280;49208;50.874;6.466;2023-03-14T18:06:21;99695.34;;;4.31;73.53
63115;BME280;49208;50.874;6.466;2023-03-14T18:08:47;99698.94;;;4.27;73.22
63115;BME280;49208;50.874;6.466;2023-03-14T18:11:12;99704.28;;;4.25;71.95
63115;BME280;49208;50.874;6.466;2023-03-14T18:13:38;99700.84;;;4.22;72.38
63115;BME280;49208;50.874;6.466;2023-03-14T18:16:05;99707.03;;;4.19;72.44
63115;BME280;49208;50.874;6.466;2023-03-14T18:18:31;99722.00;;;4.17;73.64
63115;BME280;49208;50.874;6.466;2023-03-14T18:20:56;99726.53;;;4.11;74.62
63115;BME280;49208;50.874;6.466;2023-03-14T18:23:22;99733.66;;;4.05;74.62
63115;BME280;49208;50.874;6.466;2023-03-14T18:25:48;99735.47;;;4.03;71.79
63115;BME280;49208;50.874;6.466;2023-03-14T18:28:14;99742.50;;;4.03;71.83
63115;BME280;49208;50.874;6.466;2023-03-14T18:30:40;99750.44;;;4.00;72.36
63115;BME280;49208;50.874;6.466;2023-03-14T18:33:06;99761.06;;;3.95;73.78
63115;BME280;49208;50.874;6.466;2023-03-14T18:35:31;99767.28;;;3.93;71.86
63115;BME280;49208;50.874;6.466;2023-03-14T18:37:57;99768.16;;;3.92;73.32
63115;BME280;49208;50.874;6.466;2023-03-14T18:40:22;99775.19;;;3.91;74.06
63115;BME280;49208;50.874;6.466;2023-03-14T18:42:47;99770.06;;;3.83;74.62
63115;BME280;49208;50.874;6.466;2023-03-14T18:45:13;99788.56;;;3.80;74.02
63115;BME280;49208;50.874;6.466;2023-03-14T18:47:38;99793.88;;;3.77;75.30
63115;BME280;49208;50.874;6.466;2023-03-14T18:50:05;99798.38;;;3.72;74.85
63115;BME280;49208;50.874;6.466;2023-03-14T18:52:31;99801.03;;;3.69;75.91
63115;BME280;49208;50.874;6.466;2023-03-14T18:54:56;99796.69;;;3.67;75.01
63115;BME280;49208;50.874;6.466;2023-03-14T18:57:22;99803.72;;;3.68;75.21
63115;BME280;49208;50.874;6.466;2023-03-14T18:59:48;99810.78;;;3.64;75.05
63115;BME280;49208;50.874;6.466;2023-03-14T19:02:13;99812.59;;;3.62;75.79
63115;BME280;49208;50.874;6.466;2023-03-14T19:04:39;99815.25;;;3.59;75.99
63115;BME280;49208;50.874;6.466;2023-03-14T19:07:04;99821.44;;;3.56;75.97
63115;BME280;49208;50.874;6.466;2023-03-14T19:09:30;99825.00;;;3.54;76.24
63115;BME280;49208;50.874;6.466;2023-03-14T19:11:55;99831.19;;;3.51;75.82
63115;BME280;49208;50.874;6.466;2023-03-14T19:14:20;99830.38;;;3.48;76.24
63115;BME280;49208;50.874;6.466;2023-03-14T19:16:46;99837.41;;;3.46;77.17
63115;BME280;49208;50.874;6.466;2023-03-14T19:19:11;99841.84;;;3.42;76.85
63115;BME280;49208;50.874;6.466;2023-03-14T19:21:37;99847.19;;;3.39;77.30
63115;BME280;49208;50.874;6.466;2023-03-14T19:24:04;99856.00;;;3.36;77.46
63115;BME280;49208;50.874;6.466;2023-03-14T19:26:30;99856.88;;;3.34;77.57
63115;BME280;49208;50.874;6.466;2023-03-14T19:28:57;99861.28;;;3.32;76.87
63115;BME280;49208;50.874;6.466;2023-03-14T19:31:23;99860.50;;;3.28;77.50
63115;BME280;49208;50.874;6.466;2023-03-14T19:33:48;99863.16;;;3.25;78.44
63115;BME280;49208;50.874;6.466;2023-03-14T19:36:29;99875.53;;;3.20;79.22
63115;BME280;49208;50.874;6.466;2023-03-14T19:38:55;99872.06;;;3.16;79.60
63115;BME280;49208;50.874;6.466;2023-03-14T19:41:22;99883.50;;;3.12;80.21
63115;BME280;49208;50.874;6.466;2023-03-14T19:43:49;99879.19;;;3.07;80.61
63115;BME280;49208;50.874;6.466;2023-03-14T19:46:15;99888.91;;;3.03;80.70
63115;BME280;49208;50.874;6.466;2023-03-14T19:48:40;99894.19;;;3.00;80.85
63115;BME280;49208;50.874;6.466;2023-03-14T19:51:06;99893.41;;;2.95;80.74
63115;BME280;49208;50.874;6.466;2023-03-14T19:53:31;99899.59;;;2.89;81.19
63115;BME280;49208;50.874;6.466;2023-03-14T19:55:57;99903.16;;;2.87;81.21
63115;BME280;49208;50.874;6.466;2023-03-14T19:58:23;99906.72;;;2.79;81.46
63115;BME280;49208;50.874;6.466;2023-03-14T20:00:49;99918.19;;;2.74;81.63
63115;BME280;49208;50.874;6.466;2023-03-14T20:03:15;99917.41;;;2.67;82.62
63115;BME280;49208;50.874;6.466;2023-03-14T20:05:41;99917.50;;;2.59;81.87
63115;BME280;49208;50.874;6.466;2023-03-14T20:08:08;99923.69;;;2.52;82.78
63115;BME280;49208;50.874;6.466;2023-03-14T20:10:35;99923.75;;;2.46;82.95
63115;BME280;49208;50.874;6.466;2023-03-14T20:13:01;99927.34;;;2.39;82.99
63115;BME280;49208;50.874;6.466;2023-03-14T20:15:26;99930.06;;;2.31;83.53
63115;BME280;49208;50.874;6.466;2023-03-14T20:17:52;99937.13;;;2.25;83.33
63115;BME280;49208;50.874;6.466;2023-03-14T20:20:18;99942.44;;;2.17;83.59
63115;BME280;49208;50.874;6.466;2023-03-14T20:22:45;99952.16;;;2.09;83.79
63115;BME280;49208;50.874;6.466;2023-03-14T20:25:13;99954.84;;;2.01;83.93
63115;BME280;49208;50.874;6.466;2023-03-14T20:27:39;99954.88;;;1.96;83.75
63115;BME280;49208;50.874;6.466;2023-03-14T20:30:08;99961.03;;;1.92;84.20
63115;BME280;49208;50.874;6.466;2023-03-14T20:32:40;99964.56;;;1.87;84.82
63115;BME280;49208;50.874;6.466;2023-03-14T20:35:08;99972.50;;;1.82;85.02
63115;BME280;49208;50.874;6.466;2023-03-14T20:37:34;99976.88;;;1.78;85.24
63115;BME280;49208;50.874;6.466;2023-03-14T20:40:00;99982.16;;;1.75;85.58
63115;BME280;49208;50.874;6.466;2023-03-14T20:42:25;99980.44;;;1.71;85.84
63115;BME280;49208;50.874;6.466;2023-03-14T20:44:52;99984.84;;;1.68;85.68
63115;BME280;49208;50.874;6.466;2023-03-14T20:47:19;99987.50;;;1.63;86.46
63115;BME280;49208;50.874;6.466;2023-03-14T20:49:44;99988.44;;;1.56;87.04
63115;BME280;49208;50.874;6.466;2023-03-14T20:52:10;99983.19;;;1.53;87.06
63115;BME280;49208;50.874;6.466;2023-03-14T20:54:37;99991.94;;;1.49;86.98
63115;BME280;49208;50.874;6.466;2023-03-14T20:57:02;99987.59;;;1.48;87.25
63115;BME280;49208;50.874;6.466;2023-03-14T20:59:28;99990.22;;;1.46;87.33
63115;BME280;49208;50.874;6.466;2023-03-14T21:01:53;99996.34;;;1.47;87.96
63115;BME280;49208;50.874;6.466;2023-03-14T21:04:20;99999.81;;;1.47;87.87
63115;BME280;49208;50.874;6.466;2023-03-14T21:06:45;99999.81;;;1.49;88.64
63115;BME280;49208;50.874;6.466;2023-03-14T21:09:11;100004.19;;;1.48;89.15
63115;BME280;49208;50.874;6.466;2023-03-14T21:11:37;100008.56;;;1.51;89.06
63115;BME280;49208;50.874;6.466;2023-03-14T21:14:03;100010.28;;;1.53;89.34
63115;BME280;49208;50.874;6.466;2023-03-14T21:16:29;100006.78;;;1.53;89.26